Valognes, Francia

3:21 PM CET en Enero 27, 2015 (GMT +0100)
Maupertus | Change Station
CLOSE
Current Station
Aeropuerto
Location: Cherbourg,
Altura: 453 ft
Estaciones meteorológicas cercanas

Alt 453 ft 49.65 °N, 1.46 °W | Updated 21 minutes ago

Mostly Cloudy
Muy nublado
46 ° F
Sensación térmica 42 ° F
N
10
Viento Variable Viento desde ONO

Hoy
Alta -- | Baja -- ° F
--% Posibilidad de precipitaciones
Ayer
Alta -- | Baja -- ° F
Precip. -- pul
8:45 AM 5:52 PM
Cuarto creciente, 54% visible
Presión 30.36 pul
Visibilidad 6.2 Millas
Nubes Nubes dispersas 2200 ft
Muy nublado 2800 ft
Vientos helados 42 ° F
Punto de rocío 37 ° F
Humedad 71%
Precipitaciones 0.00 pul
Espesor de la nieve No disponible.
UV 1 de una escala de 12
Polen No disponible.
Calidad del aire No disponible.
Flu Activity No disponible.
METAR LFRC 271400Z AUTO 29009KT 9999 SCT022 BKN028 08/03 Q1028

More Conditions Fewer Conditions

Presión 30.36 pul
Visibilidad 6.2 Millas
Nubes Nubes dispersas 2200 ft
Muy nublado 2800 ft
Vientos helados 42 ° F
Punto de rocío 37 ° F
Humedad 71%
Precipitaciones 0.00 pul
Espesor de la nieve No disponible.
UV 1 de una escala de 12
Polen No disponible.
Calidad del aire No disponible.
Flu Activity No disponible.
METAR LFRC 271400Z AUTO 29009KT 9999 SCT022 BKN028 08/03 Q1028

More Conditions Fewer Conditions

10-Day Weather Forecast

Almanac

Astronomía

Jan. 27, 2015 Salida Puesta
Hora real
Crepúsculo civil
Crepúsculo náutico
Crepúsculo astronómico
Luna
Horas de luz
Horas de luz
Tomorrow will be .
, % of the Moon is Illuminated

Extremos de hoy

Máximos del país Bajas del país

Community

WunderPhotos

Upload Photos

1,790,648 ¡fotos cargadas!

WunderBlogs® & News

Nearby

Calidad del aire

  Calidad del aire Índice AQ Contaminante
Not available.

Grosos de nieve

Estación Profundido Altura

Actividad de terremotos

Ciudad Distance Mag. Tiempo y dato
Magnitud mínima muestra es 2,5.

Temperaturas de aguas costeras

Lugar Temperatura

Estaciones meteorológicas cercanas